sensor_id;sensor_type;location;lat;lon;timestamp;P1;durP1;ratioP1;P2;durP2;ratioP2
56233;SDS011;42141;53.240;6.580;2023-03-02T00:00:40;11.45;;;8.40;;
56233;SDS011;42141;53.240;6.580;2023-03-02T00:03:07;10.15;;;8.32;;
56233;SDS011;42141;53.240;6.580;2023-03-02T00:05:35;10.13;;;8.38;;
56233;SDS011;42141;53.240;6.580;2023-03-02T00:08:02;12.68;;;8.38;;
56233;SDS011;42141;53.240;6.580;2023-03-02T00:10:29;11.10;;;8.85;;
56233;SDS011;42141;53.240;6.580;2023-03-02T00:12:55;12.00;;;8.18;;
56233;SDS011;42141;53.240;6.580;2023-03-02T00:15:21;11.00;;;7.70;;
56233;SDS011;42141;53.240;6.580;2023-03-02T00:17:47;9.82;;;7.53;;
56233;SDS011;42141;53.240;6.580;2023-03-02T00:20:13;10.07;;;7.38;;
56233;SDS011;42141;53.240;6.580;2023-03-02T00:22:39;10.85;;;7.65;;
56233;SDS011;42141;53.240;6.580;2023-03-02T00:25:06;9.57;;;7.68;;
56233;SDS011;42141;53.240;6.580;2023-03-02T00:27:33;8.65;;;6.63;;
56233;SDS011;42141;53.240;6.580;2023-03-02T00:29:59;8.88;;;6.80;;
56233;SDS011;42141;53.240;6.580;2023-03-02T00:32:25;10.70;;;7.78;;
56233;SDS011;42141;53.240;6.580;2023-03-02T00:34:50;10.90;;;7.22;;
56233;SDS011;42141;53.240;6.580;2023-03-02T00:37:16;9.65;;;6.50;;
56233;SDS011;42141;53.240;6.580;2023-03-02T00:39:42;7.75;;;5.93;;
56233;SDS011;42141;53.240;6.580;2023-03-02T00:42:08;8.90;;;6.32;;
56233;SDS011;42141;53.240;6.580;2023-03-02T00:44:34;9.35;;;6.95;;
56233;SDS011;42141;53.240;6.580;2023-03-02T00:46:59;8.70;;;6.53;;
56233;SDS011;42141;53.240;6.580;2023-03-02T00:49:25;10.15;;;6.75;;
56233;SDS011;42141;53.240;6.580;2023-03-02T00:51:52;12.52;;;5.85;;
56233;SDS011;42141;53.240;6.580;2023-03-02T00:54:18;9.38;;;5.95;;
56233;SDS011;42141;53.240;6.580;2023-03-02T00:56:44;8.38;;;6.20;;
56233;SDS011;42141;53.240;6.580;2023-03-02T00:59:11;8.57;;;5.88;;
56233;SDS011;42141;53.240;6.580;2023-03-02T01:01:53;11.35;;;6.07;;
56233;SDS011;42141;53.240;6.580;2023-03-02T01:04:24;11.32;;;6.93;;
56233;SDS011;42141;53.240;6.580;2023-03-02T01:06:57;11.20;;;6.38;;
56233;SDS011;42141;53.240;6.580;2023-03-02T01:09:23;11.73;;;6.97;;
56233;SDS011;42141;53.240;6.580;2023-03-02T01:11:49;8.68;;;6.78;;
56233;SDS011;42141;53.240;6.580;2023-03-02T01:14:15;10.45;;;7.43;;
56233;SDS011;42141;53.240;6.580;2023-03-02T01:16:41;9.77;;;7.80;;
56233;SDS011;42141;53.240;6.580;2023-03-02T01:19:07;11.02;;;7.90;;
56233;SDS011;42141;53.240;6.580;2023-03-02T01:21:33;12.45;;;8.20;;
56233;SDS011;42141;53.240;6.580;2023-03-02T01:23:59;10.90;;;8.60;;
56233;SDS011;42141;53.240;6.580;2023-03-02T01:26:24;14.82;;;8.35;;
56233;SDS011;42141;53.240;6.580;2023-03-02T01:28:50;11.82;;;9.23;;
56233;SDS011;42141;53.240;6.580;2023-03-02T01:31:22;13.98;;;8.75;;
56233;SDS011;42141;53.240;6.580;2023-03-02T01:33:49;11.80;;;8.93;;
56233;SDS011;42141;53.240;6.580;2023-03-02T01:36:15;12.57;;;8.75;;
56233;SDS011;42141;53.240;6.580;2023-03-02T01:38:41;11.25;;;8.73;;
56233;SDS011;42141;53.240;6.580;2023-03-02T01:41:07;12.50;;;8.95;;
56233;SDS011;42141;53.240;6.580;2023-03-02T01:43:33;12.10;;;8.82;;
56233;SDS011;42141;53.240;6.580;2023-03-02T01:48:51;13.52;;;9.45;;
56233;SDS011;42141;53.240;6.580;2023-03-02T01:51:27;14.97;;;9.90;;
56233;SDS011;42141;53.240;6.580;2023-03-02T01:53:57;15.30;;;10.23;;
56233;SDS011;42141;53.240;6.580;2023-03-02T01:56:31;13.10;;;9.63;;
56233;SDS011;42141;53.240;6.580;2023-03-02T01:59:01;16.50;;;10.80;;
56233;SDS011;42141;53.240;6.580;2023-03-02T02:01:31;18.73;;;10.85;;
56233;SDS011;42141;53.240;6.580;2023-03-02T02:03:59;16.63;;;10.45;;
56233;SDS011;42141;53.240;6.580;2023-03-02T02:06:37;16.40;;;11.55;;
56233;SDS011;42141;53.240;6.580;2023-03-02T02:09:05;17.80;;;12.40;;
56233;SDS011;42141;53.240;6.580;2023-03-02T02:11:34;20.65;;;13.60;;
56233;SDS011;42141;53.240;6.580;2023-03-02T02:14:00;20.25;;;12.95;;
56233;SDS011;42141;53.240;6.580;2023-03-02T02:16:27;20.70;;;12.63;;
56233;SDS011;42141;53.240;6.580;2023-03-02T02:18:55;19.77;;;13.55;;
56233;SDS011;42141;53.240;6.580;2023-03-02T02:21:21;18.42;;;12.38;;
56233;SDS011;42141;53.240;6.580;2023-03-02T02:29:06;18.23;;;12.88;;
56233;SDS011;42141;53.240;6.580;2023-03-02T02:34:11;20.70;;;13.65;;
56233;SDS011;42141;53.240;6.580;2023-03-02T02:36:42;23.05;;;13.75;;
56233;SDS011;42141;53.240;6.580;2023-03-02T02:39:14;22.45;;;14.23;;
56233;SDS011;42141;53.240;6.580;2023-03-02T02:42:10;25.67;;;15.02;;
56233;SDS011;42141;53.240;6.580;2023-03-02T02:44:39;24.40;;;14.57;;
56233;SDS011;42141;53.240;6.580;2023-03-02T02:47:18;22.38;;;15.52;;
56233;SDS011;42141;53.240;6.580;2023-03-02T02:49:45;23.90;;;15.43;;
56233;SDS011;42141;53.240;6.580;2023-03-02T02:52:15;24.63;;;15.32;;
56233;SDS011;42141;53.240;6.580;2023-03-02T02:54:47;28.55;;;15.15;;
56233;SDS011;42141;53.240;6.580;2023-03-02T02:57:15;26.67;;;16.05;;
56233;SDS011;42141;53.240;6.580;2023-03-02T02:59:49;26.20;;;16.25;;
56233;SDS011;42141;53.240;6.580;2023-03-02T03:02:22;23.67;;;16.15;;
56233;SDS011;42141;53.240;6.580;2023-03-02T03:04:50;23.83;;;16.02;;
56233;SDS011;42141;53.240;6.580;2023-03-02T03:07:18;25.73;;;16.40;;
56233;SDS011;42141;53.240;6.580;2023-03-02T03:12:39;28.58;;;17.73;;
56233;SDS011;42141;53.240;6.580;2023-03-02T03:15:06;26.05;;;17.52;;
56233;SDS011;42141;53.240;6.580;2023-03-02T03:17:33;26.17;;;17.17;;
56233;SDS011;42141;53.240;6.580;2023-03-02T03:19:59;30.92;;;17.33;;
56233;SDS011;42141;53.240;6.580;2023-03-02T03:22:30;26.90;;;16.73;;
56233;SDS011;42141;53.240;6.580;2023-03-02T03:24:57;24.05;;;15.80;;
56233;SDS011;42141;53.240;6.580;2023-03-02T03:27:23;24.45;;;16.92;;
56233;SDS011;42141;53.240;6.580;2023-03-02T03:29:49;28.48;;;18.33;;
56233;SDS011;42141;53.240;6.580;2023-03-02T03:32:14;27.77;;;17.13;;
56233;SDS011;42141;53.240;6.580;2023-03-02T03:34:41;27.00;;;16.92;;
56233;SDS011;42141;53.240;6.580;2023-03-02T03:37:11;28.15;;;17.88;;
56233;SDS011;42141;53.240;6.580;2023-03-02T03:39:39;25.77;;;17.70;;
56233;SDS011;42141;53.240;6.580;2023-03-02T03:42:05;36.70;;;18.13;;
56233;SDS011;42141;53.240;6.580;2023-03-02T03:44:31;26.08;;;17.30;;
56233;SDS011;42141;53.240;6.580;2023-03-02T03:46:58;25.05;;;16.70;;
56233;SDS011;42141;53.240;6.580;2023-03-02T03:49:24;29.27;;;18.08;;
56233;SDS011;42141;53.240;6.580;2023-03-02T03:51:50;30.05;;;18.52;;
56233;SDS011;42141;53.240;6.580;2023-03-02T03:54:15;31.85;;;18.17;;
56233;SDS011;42141;53.240;6.580;2023-03-02T03:56:45;32.20;;;19.35;;
56233;SDS011;42141;53.240;6.580;2023-03-02T03:59:15;31.75;;;19.63;;
56233;SDS011;42141;53.240;6.580;2023-03-02T04:01:47;34.80;;;19.63;;
56233;SDS011;42141;53.240;6.580;2023-03-02T04:04:17;37.13;;;20.05;;
56233;SDS011;42141;53.240;6.580;2023-03-02T04:06:44;37.47;;;20.55;;
56233;SDS011;42141;53.240;6.580;2023-03-02T04:09:10;36.65;;;19.73;;
56233;SDS011;42141;53.240;6.580;2023-03-02T04:11:37;36.45;;;20.02;;
56233;SDS011;42141;53.240;6.580;2023-03-02T04:14:05;40.47;;;21.83;;
56233;SDS011;42141;53.240;6.580;2023-03-02T04:16:32;48.40;;;24.00;;
56233;SDS011;42141;53.240;6.580;2023-03-02T04:18:58;68.50;;;22.38;;
56233;SDS011;42141;53.240;6.580;2023-03-02T04:21:24;48.85;;;22.23;;
56233;SDS011;42141;53.240;6.580;2023-03-02T04:23:50;63.03;;;22.48;;
56233;SDS011;42141;53.240;6.580;2023-03-02T04:26:16;59.85;;;22.35;;
56233;SDS011;42141;53.240;6.580;2023-03-02T04:28:42;55.05;;;22.10;;
56233;SDS011;42141;53.240;6.580;2023-03-02T04:31:08;52.28;;;22.52;;
56233;SDS011;42141;53.240;6.580;2023-03-02T04:33:34;51.22;;;24.15;;
56233;SDS011;42141;53.240;6.580;2023-03-02T04:36:00;50.47;;;23.25;;
56233;SDS011;42141;53.240;6.580;2023-03-02T04:38:26;60.20;;;24.90;;
56233;SDS011;42141;53.240;6.580;2023-03-02T04:40:56;55.38;;;24.05;;
56233;SDS011;42141;53.240;6.580;2023-03-02T04:43:22;57.47;;;25.70;;
56233;SDS011;42141;53.240;6.580;2023-03-02T04:45:49;66.10;;;24.00;;
56233;SDS011;42141;53.240;6.580;2023-03-02T04:48:15;58.45;;;23.70;;
56233;SDS011;42141;53.240;6.580;2023-03-02T04:50:41;52.78;;;20.67;;
56233;SDS011;42141;53.240;6.580;2023-03-02T04:53:07;69.15;;;22.67;;
56233;SDS011;42141;53.240;6.580;2023-03-02T04:55:33;59.25;;;23.23;;
56233;SDS011;42141;53.240;6.580;2023-03-02T04:57:59;59.25;;;23.38;;
56233;SDS011;42141;53.240;6.580;2023-03-02T05:00:24;74.38;;;22.90;;
56233;SDS011;42141;53.240;6.580;2023-03-02T05:02:52;63.03;;;23.58;;
56233;SDS011;42141;53.240;6.580;2023-03-02T05:05:20;67.80;;;24.00;;
56233;SDS011;42141;53.240;6.580;2023-03-02T05:07:48;69.43;;;23.35;;
56233;SDS011;42141;53.240;6.580;2023-03-02T05:10:15;57.47;;;22.55;;
56233;SDS011;42141;53.240;6.580;2023-03-02T05:12:41;56.75;;;24.58;;
56233;SDS011;42141;53.240;6.580;2023-03-02T05:15:30;50.20;;;22.50;;
56233;SDS011;42141;53.240;6.580;2023-03-02T05:18:01;62.05;;;24.42;;
56233;SDS011;42141;53.240;6.580;2023-03-02T05:20:28;57.08;;;22.15;;
56233;SDS011;42141;53.240;6.580;2023-03-02T05:23:00;90.82;;;24.30;;
56233;SDS011;42141;53.240;6.580;2023-03-02T05:25:28;71.28;;;22.45;;
56233;SDS011;42141;53.240;6.580;2023-03-02T05:27:55;85.65;;;22.75;;
56233;SDS011;42141;53.240;6.580;2023-03-02T05:30:22;89.05;;;24.08;;
56233;SDS011;42141;53.240;6.580;2023-03-02T05:32:48;75.47;;;24.00;;
56233;SDS011;42141;53.240;6.580;2023-03-02T05:35:14;70.10;;;24.20;;
56233;SDS011;42141;53.240;6.580;2023-03-02T05:37:40;59.72;;;23.15;;
56233;SDS011;42141;53.240;6.580;2023-03-02T05:40:09;66.03;;;23.70;;
56233;SDS011;42141;53.240;6.580;2023-03-02T05:42:36;51.20;;;21.83;;
56233;SDS011;42141;53.240;6.580;2023-03-02T05:45:03;102.78;;;24.38;;
56233;SDS011;42141;53.240;6.580;2023-03-02T05:47:30;67.40;;;21.38;;
56233;SDS011;42141;53.240;6.580;2023-03-02T05:49:55;82.05;;;21.33;;
56233;SDS011;42141;53.240;6.580;2023-03-02T05:52:21;94.65;;;18.83;;
56233;SDS011;42141;53.240;6.580;2023-03-02T05:54:47;46.03;;;19.70;;
56233;SDS011;42141;53.240;6.580;2023-03-02T05:57:13;38.60;;;19.00;;
56233;SDS011;42141;53.240;6.580;2023-03-02T05:59:38;54.03;;;20.23;;
56233;SDS011;42141;53.240;6.580;2023-03-02T06:02:04;50.13;;;21.17;;
56233;SDS011;42141;53.240;6.580;2023-03-02T06:04:30;47.80;;;19.35;;
56233;SDS011;42141;53.240;6.580;2023-03-02T06:06:55;63.08;;;19.70;;
56233;SDS011;42141;53.240;6.580;2023-03-02T06:09:21;41.08;;;20.20;;
56233;SDS011;42141;53.240;6.580;2023-03-02T06:11:47;40.05;;;19.98;;
56233;SDS011;42141;53.240;6.580;2023-03-02T06:14:13;40.90;;;20.95;;
56233;SDS011;42141;53.240;6.580;2023-03-02T06:16:39;68.43;;;20.75;;
56233;SDS011;42141;53.240;6.580;2023-03-02T06:19:04;52.83;;;21.98;;
56233;SDS011;42141;53.240;6.580;2023-03-02T06:21:30;56.30;;;21.75;;
56233;SDS011;42141;53.240;6.580;2023-03-02T06:23:56;86.72;;;21.58;;
56233;SDS011;42141;53.240;6.580;2023-03-02T06:26:22;63.40;;;21.13;;
56233;SDS011;42141;53.240;6.580;2023-03-02T06:28:48;60.83;;;23.25;;
56233;SDS011;42141;53.240;6.580;2023-03-02T06:31:13;62.72;;;23.20;;
56233;SDS011;42141;53.240;6.580;2023-03-02T06:33:40;76.10;;;21.75;;
56233;SDS011;42141;53.240;6.580;2023-03-02T06:36:06;58.13;;;22.95;;
56233;SDS011;42141;53.240;6.580;2023-03-02T06:38:32;55.88;;;22.85;;
56233;SDS011;42141;53.240;6.580;2023-03-02T06:40:57;53.97;;;21.88;;
56233;SDS011;42141;53.240;6.580;2023-03-02T06:43:25;105.97;;;21.42;;
56233;SDS011;42141;53.240;6.580;2023-03-02T06:45:51;57.60;;;21.35;;
56233;SDS011;42141;53.240;6.580;2023-03-02T06:48:16;48.80;;;19.73;;
56233;SDS011;42141;53.240;6.580;2023-03-02T06:50:42;49.47;;;20.00;;
56233;SDS011;42141;53.240;6.580;2023-03-02T06:53:07;72.68;;;19.83;;
56233;SDS011;42141;53.240;6.580;2023-03-02T06:55:33;71.10;;;21.60;;
56233;SDS011;42141;53.240;6.580;2023-03-02T06:57:59;78.68;;;20.08;;
56233;SDS011;42141;53.240;6.580;2023-03-02T07:00:25;57.85;;;18.75;;
56233;SDS011;42141;53.240;6.580;2023-03-02T07:02:52;84.25;;;19.95;;
56233;SDS011;42141;53.240;6.580;2023-03-02T07:05:19;74.38;;;21.10;;
56233;SDS011;42141;53.240;6.580;2023-03-02T07:07:45;61.05;;;19.42;;
56233;SDS011;42141;53.240;6.580;2023-03-02T07:10:11;56.50;;;17.58;;
56233;SDS011;42141;53.240;6.580;2023-03-02T07:12:38;58.22;;;17.48;;
56233;SDS011;42141;53.240;6.580;2023-03-02T07:15:04;105.78;;;19.23;;
56233;SDS011;42141;53.240;6.580;2023-03-02T07:17:35;72.60;;;20.08;;
56233;SDS011;42141;53.240;6.580;2023-03-02T07:20:05;44.40;;;19.52;;
56233;SDS011;42141;53.240;6.580;2023-03-02T07:22:31;97.43;;;22.20;;
56233;SDS011;42141;53.240;6.580;2023-03-02T07:24:57;40.50;;;18.73;;
56233;SDS011;42141;53.240;6.580;2023-03-02T07:27:22;68.15;;;19.55;;
56233;SDS011;42141;53.240;6.580;2023-03-02T07:29:48;86.43;;;20.92;;
56233;SDS011;42141;53.240;6.580;2023-03-02T07:32:14;75.78;;;19.80;;
56233;SDS011;42141;53.240;6.580;2023-03-02T07:34:39;100.15;;;21.35;;
56233;SDS011;42141;53.240;6.580;2023-03-02T07:37:05;86.13;;;20.65;;
56233;SDS011;42141;53.240;6.580;2023-03-02T07:39:31;45.05;;;20.05;;
56233;SDS011;42141;53.240;6.580;2023-03-02T07:41:57;44.63;;;22.63;;
56233;SDS011;42141;53.240;6.580;2023-03-02T07:44:24;78.10;;;22.45;;
56233;SDS011;42141;53.240;6.580;2023-03-02T07:46:50;75.72;;;21.95;;
56233;SDS011;42141;53.240;6.580;2023-03-02T07:49:16;50.83;;;20.15;;
56233;SDS011;42141;53.240;6.580;2023-03-02T07:51:41;95.85;;;23.00;;
56233;SDS011;42141;53.240;6.580;2023-03-02T07:54:07;65.55;;;21.92;;
56233;SDS011;42141;53.240;6.580;2023-03-02T07:56:33;65.28;;;21.50;;
56233;SDS011;42141;53.240;6.580;2023-03-02T07:58:59;41.70;;;20.65;;
56233;SDS011;42141;53.240;6.580;2023-03-02T08:01:25;47.35;;;21.33;;
56233;SDS011;42141;53.240;6.580;2023-03-02T08:03:50;63.58;;;21.48;;
56233;SDS011;42141;53.240;6.580;2023-03-02T08:06:22;65.70;;;20.98;;
56233;SDS011;42141;53.240;6.580;2023-03-02T08:08:48;49.65;;;21.23;;
56233;SDS011;42141;53.240;6.580;2023-03-02T08:11:14;64.75;;;18.90;;
56233;SDS011;42141;53.240;6.580;2023-03-02T08:13:41;40.97;;;19.55;;
56233;SDS011;42141;53.240;6.580;2023-03-02T08:16:07;38.25;;;16.80;;
56233;SDS011;42141;53.240;6.580;2023-03-02T08:18:34;46.63;;;18.13;;
56233;SDS011;42141;53.240;6.580;2023-03-02T08:21:01;47.38;;;18.08;;
56233;SDS011;42141;53.240;6.580;2023-03-02T08:23:27;45.58;;;18.27;;
56233;SDS011;42141;53.240;6.580;2023-03-02T08:25:53;53.28;;;17.08;;
56233;SDS011;42141;53.240;6.580;2023-03-02T08:28:20;48.08;;;17.70;;
56233;SDS011;42141;53.240;6.580;2023-03-02T08:30:56;35.65;;;15.90;;
56233;SDS011;42141;53.240;6.580;2023-03-02T08:33:23;30.38;;;14.60;;
56233;SDS011;42141;53.240;6.580;2023-03-02T08:35:57;31.08;;;14.93;;
56233;SDS011;42141;53.240;6.580;2023-03-02T08:38:25;28.95;;;15.13;;
56233;SDS011;42141;53.240;6.580;2023-03-02T08:40:51;33.85;;;17.48;;
56233;SDS011;42141;53.240;6.580;2023-03-02T08:43:17;25.63;;;13.32;;
56233;SDS011;42141;53.240;6.580;2023-03-02T08:45:44;24.13;;;12.85;;
56233;SDS011;42141;53.240;6.580;2023-03-02T08:48:10;21.05;;;12.90;;
56233;SDS011;42141;53.240;6.580;2023-03-02T08:50:35;22.63;;;11.60;;
56233;SDS011;42141;53.240;6.580;2023-03-02T08:53:01;22.52;;;12.80;;
56233;SDS011;42141;53.240;6.580;2023-03-02T08:55:27;22.55;;;11.98;;
56233;SDS011;42141;53.240;6.580;2023-03-02T08:57:52;39.03;;;20.27;;
56233;SDS011;42141;53.240;6.580;2023-03-02T09:00:18;22.48;;;13.25;;
56233;SDS011;42141;53.240;6.580;2023-03-02T09:02:44;23.45;;;12.20;;
56233;SDS011;42141;53.240;6.580;2023-03-02T09:05:10;22.92;;;12.32;;
56233;SDS011;42141;53.240;6.580;2023-03-02T09:07:36;20.20;;;12.30;;
56233;SDS011;42141;53.240;6.580;2023-03-02T09:10:02;21.38;;;12.45;;
56233;SDS011;42141;53.240;6.580;2023-03-02T09:12:28;22.08;;;11.85;;
56233;SDS011;42141;53.240;6.580;2023-03-02T09:14:53;22.83;;;12.60;;
56233;SDS011;42141;53.240;6.580;2023-03-02T09:17:19;21.98;;;11.90;;
56233;SDS011;42141;53.240;6.580;2023-03-02T09:19:45;22.42;;;11.38;;
56233;SDS011;42141;53.240;6.580;2023-03-02T09:22:11;22.52;;;12.18;;
56233;SDS011;42141;53.240;6.580;2023-03-02T09:24:36;23.90;;;13.68;;
56233;SDS011;42141;53.240;6.580;2023-03-02T09:27:02;25.55;;;12.50;;
56233;SDS011;42141;53.240;6.580;2023-03-02T09:29:28;24.90;;;13.20;;
56233;SDS011;42141;53.240;6.580;2023-03-02T09:31:53;20.17;;;11.35;;
56233;SDS011;42141;53.240;6.580;2023-03-02T09:34:19;19.65;;;11.35;;
56233;SDS011;42141;53.240;6.580;2023-03-02T09:36:45;18.40;;;10.70;;
56233;SDS011;42141;53.240;6.580;2023-03-02T09:39:11;18.52;;;11.63;;
56233;SDS011;42141;53.240;6.580;2023-03-02T09:56:07;23.67;;;12.30;;
56233;SDS011;42141;53.240;6.580;2023-03-02T09:58:41;19.92;;;11.10;;
56233;SDS011;42141;53.240;6.580;2023-03-02T10:01:19;19.88;;;11.70;;
56233;SDS011;42141;53.240;6.580;2023-03-02T10:03:59;22.00;;;11.57;;
56233;SDS011;42141;53.240;6.580;2023-03-02T10:06:33;17.80;;;10.70;;
56233;SDS011;42141;53.240;6.580;2023-03-02T10:08:59;21.98;;;12.25;;
56233;SDS011;42141;53.240;6.580;2023-03-02T10:14:19;21.42;;;11.68;;
56233;SDS011;42141;53.240;6.580;2023-03-02T10:19:59;21.83;;;11.23;;
56233;SDS011;42141;53.240;6.580;2023-03-02T10:22:31;18.40;;;11.20;;
56233;SDS011;42141;53.240;6.580;2023-03-02T10:25:19;19.52;;;12.07;;
56233;SDS011;42141;53.240;6.580;2023-03-02T10:28:25;22.38;;;11.10;;
56233;SDS011;42141;53.240;6.580;2023-03-02T10:31:03;17.00;;;9.93;;
56233;SDS011;42141;53.240;6.580;2023-03-02T10:33:33;22.50;;;10.63;;
56233;SDS011;42141;53.240;6.580;2023-03-02T10:36:02;18.20;;;10.65;;
56233;SDS011;42141;53.240;6.580;2023-03-02T10:38:36;17.25;;;10.80;;
56233;SDS011;42141;53.240;6.580;2023-03-02T10:41:02;17.83;;;10.10;;
56233;SDS011;42141;53.240;6.580;2023-03-02T10:43:34;17.08;;;9.93;;
56233;SDS011;42141;53.240;6.580;2023-03-02T10:46:05;16.70;;;9.73;;
56233;SDS011;42141;53.240;6.580;2023-03-02T10:48:45;15.57;;;9.20;;
56233;SDS011;42141;53.240;6.580;2023-03-02T10:51:27;18.02;;;9.52;;
56233;SDS011;42141;53.240;6.580;2023-03-02T10:54:09;19.08;;;10.55;;
56233;SDS011;42141;53.240;6.580;2023-03-02T10:56:37;17.38;;;9.55;;
56233;SDS011;42141;53.240;6.580;2023-03-02T11:02:07;15.43;;;9.07;;
56233;SDS011;42141;53.240;6.580;2023-03-02T11:04:42;15.60;;;9.38;;
56233;SDS011;42141;53.240;6.580;2023-03-02T11:07:16;15.35;;;9.48;;
56233;SDS011;42141;53.240;6.580;2023-03-02T11:12:26;17.88;;;10.60;;
56233;SDS011;42141;53.240;6.580;2023-03-02T11:17:37;16.17;;;9.80;;
56233;SDS011;42141;53.240;6.580;2023-03-02T11:20:05;16.40;;;9.52;;
56233;SDS011;42141;53.240;6.580;2023-03-02T11:25:24;18.38;;;10.38;;
56233;SDS011;42141;53.240;6.580;2023-03-02T11:30:59;16.30;;;9.40;;
56233;SDS011;42141;53.240;6.580;2023-03-02T11:33:28;16.65;;;9.77;;
56233;SDS011;42141;53.240;6.580;2023-03-02T11:36:11;13.23;;;8.55;;
56233;SDS011;42141;53.240;6.580;2023-03-02T11:38:46;15.77;;;9.95;;
56233;SDS011;42141;53.240;6.580;2023-03-02T11:41:28;14.45;;;9.20;;
56233;SDS011;42141;53.240;6.580;2023-03-02T11:44:11;17.27;;;9.98;;
56233;SDS011;42141;53.240;6.580;2023-03-02T11:46:40;13.50;;;9.35;;
56233;SDS011;42141;53.240;6.580;2023-03-02T11:49:24;14.85;;;10.02;;
56233;SDS011;42141;53.240;6.580;2023-03-02T11:52:01;14.50;;;10.00;;
56233;SDS011;42141;53.240;6.580;2023-03-02T11:54:49;15.00;;;9.70;;
56233;SDS011;42141;53.240;6.580;2023-03-02T11:57:25;20.83;;;10.52;;
56233;SDS011;42141;53.240;6.580;2023-03-02T11:59:55;15.75;;;9.20;;
56233;SDS011;42141;53.240;6.580;2023-03-02T12:02:22;14.25;;;9.60;;
56233;SDS011;42141;53.240;6.580;2023-03-02T12:04:49;15.18;;;9.43;;
56233;SDS011;42141;53.240;6.580;2023-03-02T12:07:26;17.08;;;9.10;;
56233;SDS011;42141;53.240;6.580;2023-03-02T12:10:04;13.57;;;9.38;;
56233;SDS011;42141;53.240;6.580;2023-03-02T12:12:46;12.75;;;7.70;;
56233;SDS011;42141;53.240;6.580;2023-03-02T12:15:47;15.75;;;10.02;;
56233;SDS011;42141;53.240;6.580;2023-03-02T12:18:24;14.40;;;9.20;;
56233;SDS011;42141;53.240;6.580;2023-03-02T12:21:15;19.23;;;9.80;;
56233;SDS011;42141;53.240;6.580;2023-03-02T12:31:26;18.23;;;12.05;;
56233;SDS011;42141;53.240;6.580;2023-03-02T12:34:22;21.52;;;11.65;;
56233;SDS011;42141;53.240;6.580;2023-03-02T12:37:16;15.95;;;11.15;;
56233;SDS011;42141;53.240;6.580;2023-03-02T12:48:30;16.55;;;10.00;;
56233;SDS011;42141;53.240;6.580;2023-03-02T12:51:01;13.32;;;8.75;;
56233;SDS011;42141;53.240;6.580;2023-03-02T12:53:29;21.45;;;10.65;;
56233;SDS011;42141;53.240;6.580;2023-03-02T12:55:55;15.60;;;10.55;;
56233;SDS011;42141;53.240;6.580;2023-03-02T12:58:22;16.52;;;10.82;;
56233;SDS011;42141;53.240;6.580;2023-03-02T13:00:53;19.23;;;10.82;;
56233;SDS011;42141;53.240;6.580;2023-03-02T13:03:20;15.73;;;10.95;;
56233;SDS011;42141;53.240;6.580;2023-03-02T13:05:46;16.83;;;10.85;;
56233;SDS011;42141;53.240;6.580;2023-03-02T13:08:20;17.35;;;12.48;;
56233;SDS011;42141;53.240;6.580;2023-03-02T13:13:23;17.98;;;11.73;;
56233;SDS011;42141;53.240;6.580;2023-03-02T13:16:52;18.75;;;13.20;;
56233;SDS011;42141;53.240;6.580;2023-03-02T13:18:46;18.08;;;11.70;;
56233;SDS011;42141;53.240;6.580;2023-03-02T13:21:17;16.73;;;11.65;;
56233;SDS011;42141;53.240;6.580;2023-03-02T13:23:45;18.75;;;11.52;;
56233;SDS011;42141;53.240;6.580;2023-03-02T13:26:23;17.73;;;11.63;;
56233;SDS011;42141;53.240;6.580;2023-03-02T13:29:16;17.42;;;11.63;;
56233;SDS011;42141;53.240;6.580;2023-03-02T13:31:47;18.45;;;11.77;;
56233;SDS011;42141;53.240;6.580;2023-03-02T13:34:20;16.15;;;11.55;;
56233;SDS011;42141;53.240;6.580;2023-03-02T13:36:51;13.98;;;10.40;;
56233;SDS011;42141;53.240;6.580;2023-03-02T13:39:19;19.42;;;11.73;;
56233;SDS011;42141;53.240;6.580;2023-03-02T13:41:51;15.05;;;10.30;;
56233;SDS011;42141;53.240;6.580;2023-03-02T13:44:26;13.95;;;9.73;;
56233;SDS011;42141;53.240;6.580;2023-03-02T13:46:56;14.73;;;9.95;;
56233;SDS011;42141;53.240;6.580;2023-03-02T13:51:56;11.80;;;7.90;;
56233;SDS011;42141;53.240;6.580;2023-03-02T13:54:27;13.98;;;9.15;;
56233;SDS011;42141;53.240;6.580;2023-03-02T13:56:55;13.27;;;9.30;;
56233;SDS011;42141;53.240;6.580;2023-03-02T13:59:23;14.02;;;8.73;;
56233;SDS011;42141;53.240;6.580;2023-03-02T14:01:49;11.52;;;8.32;;
56233;SDS011;42141;53.240;6.580;2023-03-02T14:04:16;12.82;;;7.55;;
56233;SDS011;42141;53.240;6.580;2023-03-02T14:06:45;11.18;;;7.95;;
56233;SDS011;42141;53.240;6.580;2023-03-02T14:09:11;11.50;;;7.55;;
56233;SDS011;42141;53.240;6.580;2023-03-02T14:11:38;17.73;;;8.48;;
56233;SDS011;42141;53.240;6.580;2023-03-02T14:14:06;13.07;;;9.18;;
56233;SDS011;42141;53.240;6.580;2023-03-02T14:16:36;13.35;;;9.05;;
56233;SDS011;42141;53.240;6.580;2023-03-02T14:19:02;12.30;;;8.98;;
56233;SDS011;42141;53.240;6.580;2023-03-02T14:21:28;13.68;;;8.70;;
56233;SDS011;42141;53.240;6.580;2023-03-02T14:23:54;12.60;;;7.95;;
56233;SDS011;42141;53.240;6.580;2023-03-02T14:26:28;11.15;;;7.93;;
56233;SDS011;42141;53.240;6.580;2023-03-02T14:31:52;9.38;;;6.60;;
56233;SDS011;42141;53.240;6.580;2023-03-02T14:34:19;9.60;;;6.93;;
56233;SDS011;42141;53.240;6.580;2023-03-02T14:36:46;9.40;;;6.95;;
56233;SDS011;42141;53.240;6.580;2023-03-02T14:39:26;11.02;;;7.18;;
56233;SDS011;42141;53.240;6.580;2023-03-02T14:41:59;12.27;;;8.13;;
56233;SDS011;42141;53.240;6.580;2023-03-02T14:44:25;11.38;;;8.75;;
56233;SDS011;42141;53.240;6.580;2023-03-02T14:46:51;15.27;;;9.80;;
56233;SDS011;42141;53.240;6.580;2023-03-02T14:49:17;16.42;;;10.10;;
56233;SDS011;42141;53.240;6.580;2023-03-02T14:51:44;14.35;;;9.52;;
56233;SDS011;42141;53.240;6.580;2023-03-02T14:54:25;15.73;;;9.93;;
56233;SDS011;42141;53.240;6.580;2023-03-02T14:56:51;13.07;;;8.65;;
56233;SDS011;42141;53.240;6.580;2023-03-02T14:59:17;14.57;;;9.57;;
56233;SDS011;42141;53.240;6.580;2023-03-02T15:01:43;15.52;;;9.57;;
56233;SDS011;42141;53.240;6.580;2023-03-02T15:04:09;14.48;;;9.07;;
56233;SDS011;42141;53.240;6.580;2023-03-02T15:06:38;16.85;;;11.07;;
56233;SDS011;42141;53.240;6.580;2023-03-02T15:09:06;15.43;;;10.90;;
56233;SDS011;42141;53.240;6.580;2023-03-02T15:11:32;15.88;;;11.43;;
56233;SDS011;42141;53.240;6.580;2023-03-02T15:13:58;17.38;;;12.93;;
56233;SDS011;42141;53.240;6.580;2023-03-02T15:16:24;20.00;;;12.85;;
56233;SDS011;42141;53.240;6.580;2023-03-02T15:18:50;16.85;;;12.52;;
56233;SDS011;42141;53.240;6.580;2023-03-02T15:21:21;17.27;;;12.23;;
56233;SDS011;42141;53.240;6.580;2023-03-02T15:23:48;19.65;;;12.23;;
56233;SDS011;42141;53.240;6.580;2023-03-02T15:26:15;17.00;;;12.63;;
56233;SDS011;42141;53.240;6.580;2023-03-02T15:28:42;16.73;;;12.13;;
56233;SDS011;42141;53.240;6.580;2023-03-02T15:31:13;16.17;;;11.73;;
56233;SDS011;42141;53.240;6.580;2023-03-02T15:33:43;18.85;;;12.02;;
56233;SDS011;42141;53.240;6.580;2023-03-02T15:36:10;17.05;;;12.65;;
56233;SDS011;42141;53.240;6.580;2023-03-02T15:38:37;18.45;;;13.45;;
56233;SDS011;42141;53.240;6.580;2023-03-02T15:41:11;20.30;;;12.63;;
56233;SDS011;42141;53.240;6.580;2023-03-02T15:43:38;17.17;;;11.82;;
56233;SDS011;42141;53.240;6.580;2023-03-02T15:46:04;18.10;;;11.25;;
56233;SDS011;42141;53.240;6.580;2023-03-02T15:48:30;15.98;;;11.60;;